sensor_id;sensor_type;location;lat;lon;timestamp;P1;durP1;ratioP1;P2;durP2;ratioP2
67721;SDS011;58309;45.292;11.820;2024-01-30T00:00:40;89.63;;;32.92;;
67721;SDS011;58309;45.292;11.820;2024-01-30T00:03:06;72.15;;;28.88;;
67721;SDS011;58309;45.292;11.820;2024-01-30T00:05:32;64.70;;;29.25;;
67721;SDS011;58309;45.292;11.820;2024-01-30T00:07:58;72.03;;;29.60;;
67721;SDS011;58309;45.292;11.820;2024-01-30T00:10:23;97.88;;;31.13;;
67721;SDS011;58309;45.292;11.820;2024-01-30T00:12:49;69.95;;;29.50;;
67721;SDS011;58309;45.292;11.820;2024-01-30T00:15:14;66.38;;;29.05;;
67721;SDS011;58309;45.292;11.820;2024-01-30T00:17:40;60.35;;;25.92;;
67721;SDS011;58309;45.292;11.820;2024-01-30T00:20:05;62.40;;;26.52;;
67721;SDS011;58309;45.292;11.820;2024-01-30T00:22:32;49.33;;;24.83;;
67721;SDS011;58309;45.292;11.820;2024-01-30T00:24:58;73.65;;;27.17;;
67721;SDS011;58309;45.292;11.820;2024-01-30T00:27:23;66.32;;;26.45;;
67721;SDS011;58309;45.292;11.820;2024-01-30T00:29:48;55.63;;;26.77;;
67721;SDS011;58309;45.292;11.820;2024-01-30T00:32:14;68.13;;;27.25;;
67721;SDS011;58309;45.292;11.820;2024-01-30T00:34:41;58.20;;;26.92;;
67721;SDS011;58309;45.292;11.820;2024-01-30T00:37:06;59.38;;;24.92;;
67721;SDS011;58309;45.292;11.820;2024-01-30T00:39:32;62.38;;;25.75;;
67721;SDS011;58309;45.292;11.820;2024-01-30T00:41:57;53.10;;;26.90;;
67721;SDS011;58309;45.292;11.820;2024-01-30T00:44:23;71.05;;;27.23;;
67721;SDS011;58309;45.292;11.820;2024-01-30T00:46:48;63.70;;;26.75;;
67721;SDS011;58309;45.292;11.820;2024-01-30T00:49:14;73.30;;;27.83;;
67721;SDS011;58309;45.292;11.820;2024-01-30T00:51:39;61.50;;;26.20;;
67721;SDS011;58309;45.292;11.820;2024-01-30T00:54:05;72.78;;;26.90;;
67721;SDS011;58309;45.292;11.820;2024-01-30T00:56:31;58.40;;;25.15;;
67721;SDS011;58309;45.292;11.820;2024-01-30T00:58:57;48.97;;;24.70;;
67721;SDS011;58309;45.292;11.820;2024-01-30T01:01:22;48.38;;;25.60;;
67721;SDS011;58309;45.292;11.820;2024-01-30T01:03:47;92.93;;;26.48;;
67721;SDS011;58309;45.292;11.820;2024-01-30T01:06:13;88.88;;;27.17;;
67721;SDS011;58309;45.292;11.820;2024-01-30T01:08:39;65.78;;;25.27;;
67721;SDS011;58309;45.292;11.820;2024-01-30T01:11:04;81.63;;;25.80;;
67721;SDS011;58309;45.292;11.820;2024-01-30T01:13:30;57.15;;;24.83;;
67721;SDS011;58309;45.292;11.820;2024-01-30T01:15:55;84.97;;;24.85;;
67721;SDS011;58309;45.292;11.820;2024-01-30T01:18:21;74.40;;;25.33;;
67721;SDS011;58309;45.292;11.820;2024-01-30T01:20:46;50.15;;;22.92;;
67721;SDS011;58309;45.292;11.820;2024-01-30T01:23:12;57.75;;;24.85;;
67721;SDS011;58309;45.292;11.820;2024-01-30T01:25:37;66.32;;;25.05;;
67721;SDS011;58309;45.292;11.820;2024-01-30T01:28:02;69.10;;;25.48;;
67721;SDS011;58309;45.292;11.820;2024-01-30T01:30:28;67.55;;;25.38;;
67721;SDS011;58309;45.292;11.820;2024-01-30T01:32:55;56.00;;;24.83;;
67721;SDS011;58309;45.292;11.820;2024-01-30T01:35:24;58.42;;;24.15;;
67721;SDS011;58309;45.292;11.820;2024-01-30T01:37:50;91.25;;;25.35;;
67721;SDS011;58309;45.292;11.820;2024-01-30T01:40:24;61.35;;;23.27;;
67721;SDS011;58309;45.292;11.820;2024-01-30T01:42:51;53.83;;;22.52;;
67721;SDS011;58309;45.292;11.820;2024-01-30T01:45:17;66.72;;;24.27;;
67721;SDS011;58309;45.292;11.820;2024-01-30T01:47:43;51.58;;;22.35;;
67721;SDS011;58309;45.292;11.820;2024-01-30T01:50:11;75.38;;;22.17;;
67721;SDS011;58309;45.292;11.820;2024-01-30T01:52:38;48.10;;;22.20;;
67721;SDS011;58309;45.292;11.820;2024-01-30T01:55:05;62.70;;;21.23;;
67721;SDS011;58309;45.292;11.820;2024-01-30T01:57:31;70.95;;;22.40;;
67721;SDS011;58309;45.292;11.820;2024-01-30T01:59:58;59.28;;;22.08;;
67721;SDS011;58309;45.292;11.820;2024-01-30T02:02:24;64.72;;;23.60;;
67721;SDS011;58309;45.292;11.820;2024-01-30T02:04:50;74.93;;;24.15;;
67721;SDS011;58309;45.292;11.820;2024-01-30T02:07:16;72.45;;;23.45;;
67721;SDS011;58309;45.292;11.820;2024-01-30T02:09:42;66.13;;;26.08;;
67721;SDS011;58309;45.292;11.820;2024-01-30T02:12:08;69.53;;;24.67;;
67721;SDS011;58309;45.292;11.820;2024-01-30T02:14:43;72.65;;;24.40;;
67721;SDS011;58309;45.292;11.820;2024-01-30T02:17:09;55.70;;;22.70;;
67721;SDS011;58309;45.292;11.820;2024-01-30T02:19:35;79.40;;;23.75;;
67721;SDS011;58309;45.292;11.820;2024-01-30T02:22:00;66.43;;;23.40;;
67721;SDS011;58309;45.292;11.820;2024-01-30T02:24:25;53.63;;;21.88;;
67721;SDS011;58309;45.292;11.820;2024-01-30T02:26:51;56.22;;;23.08;;
67721;SDS011;58309;45.292;11.820;2024-01-30T02:29:16;67.68;;;23.50;;
67721;SDS011;58309;45.292;11.820;2024-01-30T02:31:42;87.95;;;24.63;;
67721;SDS011;58309;45.292;11.820;2024-01-30T02:34:07;70.05;;;22.77;;
67721;SDS011;58309;45.292;11.820;2024-01-30T02:36:33;63.28;;;23.40;;
67721;SDS011;58309;45.292;11.820;2024-01-30T02:38:58;62.05;;;23.58;;
67721;SDS011;58309;45.292;11.820;2024-01-30T02:41:24;61.88;;;24.48;;
67721;SDS011;58309;45.292;11.820;2024-01-30T02:43:49;64.00;;;23.50;;
67721;SDS011;58309;45.292;11.820;2024-01-30T02:46:15;63.83;;;24.15;;
67721;SDS011;58309;45.292;11.820;2024-01-30T02:48:40;76.80;;;24.63;;
67721;SDS011;58309;45.292;11.820;2024-01-30T02:51:05;62.03;;;26.17;;
67721;SDS011;58309;45.292;11.820;2024-01-30T02:53:31;64.15;;;24.25;;
67721;SDS011;58309;45.292;11.820;2024-01-30T02:55:58;47.38;;;24.73;;
67721;SDS011;58309;45.292;11.820;2024-01-30T02:58:23;48.67;;;23.10;;
67721;SDS011;58309;45.292;11.820;2024-01-30T03:00:48;55.38;;;24.00;;
67721;SDS011;58309;45.292;11.820;2024-01-30T03:03:14;54.10;;;23.85;;
67721;SDS011;58309;45.292;11.820;2024-01-30T03:05:39;41.35;;;23.90;;
67721;SDS011;58309;45.292;11.820;2024-01-30T03:08:05;51.33;;;24.80;;
67721;SDS011;58309;45.292;11.820;2024-01-30T03:10:30;49.40;;;24.77;;
67721;SDS011;58309;45.292;11.820;2024-01-30T03:12:56;41.65;;;24.20;;
67721;SDS011;58309;45.292;11.820;2024-01-30T03:15:21;42.95;;;24.08;;
67721;SDS011;58309;45.292;11.820;2024-01-30T03:17:48;44.42;;;23.55;;
67721;SDS011;58309;45.292;11.820;2024-01-30T03:20:13;46.28;;;24.02;;
67721;SDS011;58309;45.292;11.820;2024-01-30T03:22:39;38.85;;;22.33;;
67721;SDS011;58309;45.292;11.820;2024-01-30T03:25:04;40.95;;;22.73;;
67721;SDS011;58309;45.292;11.820;2024-01-30T03:27:30;39.65;;;22.13;;
67721;SDS011;58309;45.292;11.820;2024-01-30T03:29:55;39.97;;;21.48;;
67721;SDS011;58309;45.292;11.820;2024-01-30T03:32:20;42.13;;;22.48;;
67721;SDS011;58309;45.292;11.820;2024-01-30T03:34:46;36.60;;;20.70;;
67721;SDS011;58309;45.292;11.820;2024-01-30T03:37:11;52.45;;;19.25;;
67721;SDS011;58309;45.292;11.820;2024-01-30T03:39:37;37.33;;;19.73;;
67721;SDS011;58309;45.292;11.820;2024-01-30T03:42:02;46.80;;;19.92;;
67721;SDS011;58309;45.292;11.820;2024-01-30T03:44:28;36.72;;;17.38;;
67721;SDS011;58309;45.292;11.820;2024-01-30T03:46:53;37.22;;;18.95;;
67721;SDS011;58309;45.292;11.820;2024-01-30T03:49:19;57.28;;;20.63;;
67721;SDS011;58309;45.292;11.820;2024-01-30T03:51:44;41.03;;;20.98;;
67721;SDS011;58309;45.292;11.820;2024-01-30T03:54:10;35.65;;;19.38;;
67721;SDS011;58309;45.292;11.820;2024-01-30T03:56:35;31.67;;;19.77;;
67721;SDS011;58309;45.292;11.820;2024-01-30T03:59:01;32.33;;;17.73;;
67721;SDS011;58309;45.292;11.820;2024-01-30T04:01:27;42.53;;;19.38;;
67721;SDS011;58309;45.292;11.820;2024-01-30T04:03:53;39.10;;;20.50;;
67721;SDS011;58309;45.292;11.820;2024-01-30T04:06:18;54.42;;;21.08;;
67721;SDS011;58309;45.292;11.820;2024-01-30T04:08:44;59.55;;;22.30;;
67721;SDS011;58309;45.292;11.820;2024-01-30T04:11:09;45.53;;;20.38;;
67721;SDS011;58309;45.292;11.820;2024-01-30T04:13:35;48.40;;;20.70;;
67721;SDS011;58309;45.292;11.820;2024-01-30T04:16:01;57.72;;;20.95;;
67721;SDS011;58309;45.292;11.820;2024-01-30T04:18:27;47.60;;;20.05;;
67721;SDS011;58309;45.292;11.820;2024-01-30T04:20:53;41.00;;;19.73;;
67721;SDS011;58309;45.292;11.820;2024-01-30T04:23:18;35.65;;;19.55;;
67721;SDS011;58309;45.292;11.820;2024-01-30T04:25:44;39.35;;;20.08;;
67721;SDS011;58309;45.292;11.820;2024-01-30T04:28:09;37.28;;;19.70;;
67721;SDS011;58309;45.292;11.820;2024-01-30T04:30:37;40.28;;;17.98;;
67721;SDS011;58309;45.292;11.820;2024-01-30T04:33:02;40.10;;;20.30;;
67721;SDS011;58309;45.292;11.820;2024-01-30T04:35:28;59.50;;;19.15;;
67721;SDS011;58309;45.292;11.820;2024-01-30T04:37:54;55.83;;;19.90;;
67721;SDS011;58309;45.292;11.820;2024-01-30T04:40:20;53.28;;;20.77;;
67721;SDS011;58309;45.292;11.820;2024-01-30T04:42:46;34.63;;;20.25;;
67721;SDS011;58309;45.292;11.820;2024-01-30T04:45:11;48.22;;;19.20;;
67721;SDS011;58309;45.292;11.820;2024-01-30T04:47:37;38.20;;;20.05;;
67721;SDS011;58309;45.292;11.820;2024-01-30T04:50:04;46.47;;;20.05;;
67721;SDS011;58309;45.292;11.820;2024-01-30T04:52:31;51.60;;;21.02;;
67721;SDS011;58309;45.292;11.820;2024-01-30T04:54:57;43.28;;;20.80;;
67721;SDS011;58309;45.292;11.820;2024-01-30T04:57:22;70.15;;;22.23;;
67721;SDS011;58309;45.292;11.820;2024-01-30T04:59:48;58.30;;;21.77;;
67721;SDS011;58309;45.292;11.820;2024-01-30T05:02:13;52.20;;;22.17;;
67721;SDS011;58309;45.292;11.820;2024-01-30T05:04:40;52.42;;;21.63;;
67721;SDS011;58309;45.292;11.820;2024-01-30T05:07:06;40.20;;;21.23;;
67721;SDS011;58309;45.292;11.820;2024-01-30T05:09:31;37.17;;;21.42;;
67721;SDS011;58309;45.292;11.820;2024-01-30T05:11:57;58.13;;;21.40;;
67721;SDS011;58309;45.292;11.820;2024-01-30T05:14:23;60.80;;;22.65;;
67721;SDS011;58309;45.292;11.820;2024-01-30T05:16:49;50.08;;;21.67;;
67721;SDS011;58309;45.292;11.820;2024-01-30T05:19:14;46.47;;;21.65;;
67721;SDS011;58309;45.292;11.820;2024-01-30T05:21:40;39.53;;;19.98;;
67721;SDS011;58309;45.292;11.820;2024-01-30T05:24:06;42.55;;;22.52;;
67721;SDS011;58309;45.292;11.820;2024-01-30T05:26:32;45.80;;;22.40;;
67721;SDS011;58309;45.292;11.820;2024-01-30T05:28:57;60.53;;;21.58;;
67721;SDS011;58309;45.292;11.820;2024-01-30T05:31:23;37.10;;;19.20;;
67721;SDS011;58309;45.292;11.820;2024-01-30T05:33:48;45.85;;;20.80;;
67721;SDS011;58309;45.292;11.820;2024-01-30T05:36:14;44.35;;;22.13;;
67721;SDS011;58309;45.292;11.820;2024-01-30T05:38:39;53.65;;;23.38;;
67721;SDS011;58309;45.292;11.820;2024-01-30T05:41:05;55.47;;;22.77;;
67721;SDS011;58309;45.292;11.820;2024-01-30T05:43:31;58.03;;;21.30;;
67721;SDS011;58309;45.292;11.820;2024-01-30T05:45:56;48.95;;;21.38;;
67721;SDS011;58309;45.292;11.820;2024-01-30T05:48:22;52.35;;;22.27;;
67721;SDS011;58309;45.292;11.820;2024-01-30T05:50:47;48.15;;;22.35;;
67721;SDS011;58309;45.292;11.820;2024-01-30T05:53:12;49.60;;;23.85;;
67721;SDS011;58309;45.292;11.820;2024-01-30T05:55:39;53.90;;;21.30;;
67721;SDS011;58309;45.292;11.820;2024-01-30T05:58:05;72.30;;;21.85;;
67721;SDS011;58309;45.292;11.820;2024-01-30T06:00:30;51.17;;;21.73;;
67721;SDS011;58309;45.292;11.820;2024-01-30T06:02:55;68.65;;;22.38;;
67721;SDS011;58309;45.292;11.820;2024-01-30T06:05:21;57.20;;;21.27;;
67721;SDS011;58309;45.292;11.820;2024-01-30T06:07:46;58.47;;;23.35;;
67721;SDS011;58309;45.292;11.820;2024-01-30T06:10:12;67.28;;;22.80;;
67721;SDS011;58309;45.292;11.820;2024-01-30T06:12:37;72.60;;;22.63;;
67721;SDS011;58309;45.292;11.820;2024-01-30T06:15:03;44.25;;;21.48;;
67721;SDS011;58309;45.292;11.820;2024-01-30T06:17:29;83.72;;;22.30;;
67721;SDS011;58309;45.292;11.820;2024-01-30T06:19:54;67.40;;;23.05;;
67721;SDS011;58309;45.292;11.820;2024-01-30T06:22:20;47.22;;;22.13;;
67721;SDS011;58309;45.292;11.820;2024-01-30T06:24:45;56.70;;;24.65;;
67721;SDS011;58309;45.292;11.820;2024-01-30T06:27:13;66.53;;;22.55;;
67721;SDS011;58309;45.292;11.820;2024-01-30T06:29:38;43.33;;;21.23;;
67721;SDS011;58309;45.292;11.820;2024-01-30T06:32:04;46.58;;;22.83;;
67721;SDS011;58309;45.292;11.820;2024-01-30T06:34:30;53.25;;;22.02;;
67721;SDS011;58309;45.292;11.820;2024-01-30T06:36:55;47.88;;;20.55;;
67721;SDS011;58309;45.292;11.820;2024-01-30T06:39:20;41.10;;;20.95;;
67721;SDS011;58309;45.292;11.820;2024-01-30T06:41:46;39.72;;;20.60;;
67721;SDS011;58309;45.292;11.820;2024-01-30T06:44:12;46.95;;;21.80;;
67721;SDS011;58309;45.292;11.820;2024-01-30T06:46:38;32.72;;;19.40;;
67721;SDS011;58309;45.292;11.820;2024-01-30T06:49:04;43.65;;;20.58;;
67721;SDS011;58309;45.292;11.820;2024-01-30T06:51:29;39.67;;;21.23;;
67721;SDS011;58309;45.292;11.820;2024-01-30T06:53:55;42.70;;;21.50;;
67721;SDS011;58309;45.292;11.820;2024-01-30T06:56:20;39.63;;;20.83;;
67721;SDS011;58309;45.292;11.820;2024-01-30T06:58:55;51.72;;;25.60;;
67721;SDS011;58309;45.292;11.820;2024-01-30T07:01:20;54.22;;;26.25;;
67721;SDS011;58309;45.292;11.820;2024-01-30T07:03:52;60.83;;;28.85;;
67721;SDS011;58309;45.292;11.820;2024-01-30T07:06:17;68.30;;;33.42;;
67721;SDS011;58309;45.292;11.820;2024-01-30T07:08:43;62.47;;;26.95;;
67721;SDS011;58309;45.292;11.820;2024-01-30T07:11:08;57.17;;;28.60;;
67721;SDS011;58309;45.292;11.820;2024-01-30T07:13:34;48.63;;;23.58;;
67721;SDS011;58309;45.292;11.820;2024-01-30T07:16:00;52.08;;;25.25;;
67721;SDS011;58309;45.292;11.820;2024-01-30T07:18:26;50.38;;;25.17;;
67721;SDS011;58309;45.292;11.820;2024-01-30T07:20:51;51.20;;;24.70;;
67721;SDS011;58309;45.292;11.820;2024-01-30T07:23:17;56.20;;;23.30;;
67721;SDS011;58309;45.292;11.820;2024-01-30T07:25:45;69.97;;;26.17;;
67721;SDS011;58309;45.292;11.820;2024-01-30T07:28:11;72.85;;;23.52;;
67721;SDS011;58309;45.292;11.820;2024-01-30T07:30:41;66.28;;;23.75;;
67721;SDS011;58309;45.292;11.820;2024-01-30T07:33:07;57.13;;;23.20;;
67721;SDS011;58309;45.292;11.820;2024-01-30T07:35:33;41.85;;;21.15;;
67721;SDS011;58309;45.292;11.820;2024-01-30T07:37:59;40.92;;;22.80;;
67721;SDS011;58309;45.292;11.820;2024-01-30T07:40:25;41.08;;;21.75;;
67721;SDS011;58309;45.292;11.820;2024-01-30T07:42:50;37.83;;;20.05;;
67721;SDS011;58309;45.292;11.820;2024-01-30T07:45:18;40.10;;;21.38;;
67721;SDS011;58309;45.292;11.820;2024-01-30T07:47:48;37.95;;;20.90;;
67721;SDS011;58309;45.292;11.820;2024-01-30T07:50:14;40.20;;;21.35;;
67721;SDS011;58309;45.292;11.820;2024-01-30T07:52:39;34.22;;;20.42;;
67721;SDS011;58309;45.292;11.820;2024-01-30T07:55:05;46.10;;;22.65;;
67721;SDS011;58309;45.292;11.820;2024-01-30T07:57:32;43.05;;;21.95;;
67721;SDS011;58309;45.292;11.820;2024-01-30T07:59:59;40.10;;;22.13;;
67721;SDS011;58309;45.292;11.820;2024-01-30T08:02:25;41.63;;;21.80;;
67721;SDS011;58309;45.292;11.820;2024-01-30T08:04:50;39.08;;;21.70;;
67721;SDS011;58309;45.292;11.820;2024-01-30T08:07:16;44.35;;;22.92;;
67721;SDS011;58309;45.292;11.820;2024-01-30T08:09:42;43.67;;;21.95;;
67721;SDS011;58309;45.292;11.820;2024-01-30T08:12:08;45.78;;;23.45;;
67721;SDS011;58309;45.292;11.820;2024-01-30T08:14:34;46.03;;;23.77;;
67721;SDS011;58309;45.292;11.820;2024-01-30T08:16:59;44.08;;;23.92;;
67721;SDS011;58309;45.292;11.820;2024-01-30T08:19:25;47.00;;;24.50;;
67721;SDS011;58309;45.292;11.820;2024-01-30T08:21:50;48.55;;;24.60;;
67721;SDS011;58309;45.292;11.820;2024-01-30T08:24:15;45.42;;;24.83;;
67721;SDS011;58309;45.292;11.820;2024-01-30T08:26:41;48.17;;;24.15;;
67721;SDS011;58309;45.292;11.820;2024-01-30T08:29:06;53.22;;;25.75;;
67721;SDS011;58309;45.292;11.820;2024-01-30T08:31:32;49.92;;;25.13;;
67721;SDS011;58309;45.292;11.820;2024-01-30T08:33:57;47.22;;;24.95;;
67721;SDS011;58309;45.292;11.820;2024-01-30T08:36:23;42.00;;;23.23;;
67721;SDS011;58309;45.292;11.820;2024-01-30T08:38:49;45.30;;;25.00;;
67721;SDS011;58309;45.292;11.820;2024-01-30T08:41:14;46.13;;;24.55;;
67721;SDS011;58309;45.292;11.820;2024-01-30T08:43:40;40.67;;;22.88;;
67721;SDS011;58309;45.292;11.820;2024-01-30T08:46:05;42.90;;;24.00;;
67721;SDS011;58309;45.292;11.820;2024-01-30T08:48:31;46.95;;;23.85;;
67721;SDS011;58309;45.292;11.820;2024-01-30T08:50:56;39.30;;;22.52;;
67721;SDS011;58309;45.292;11.820;2024-01-30T08:53:22;36.47;;;21.92;;
67721;SDS011;58309;45.292;11.820;2024-01-30T08:55:47;37.83;;;21.02;;
67721;SDS011;58309;45.292;11.820;2024-01-30T08:58:13;34.40;;;20.35;;
67721;SDS011;58309;45.292;11.820;2024-01-30T09:00:38;35.40;;;19.80;;
67721;SDS011;58309;45.292;11.820;2024-01-30T09:03:04;36.15;;;20.25;;
67721;SDS011;58309;45.292;11.820;2024-01-30T09:05:29;33.80;;;19.55;;
67721;SDS011;58309;45.292;11.820;2024-01-30T09:07:55;30.67;;;17.73;;
67721;SDS011;58309;45.292;11.820;2024-01-30T09:10:21;28.40;;;17.35;;
67721;SDS011;58309;45.292;11.820;2024-01-30T09:12:46;28.48;;;17.52;;
67721;SDS011;58309;45.292;11.820;2024-01-30T09:15:12;30.23;;;17.90;;
67721;SDS011;58309;45.292;11.820;2024-01-30T09:17:38;28.50;;;17.17;;
67721;SDS011;58309;45.292;11.820;2024-01-30T09:20:04;24.38;;;16.77;;
67721;SDS011;58309;45.292;11.820;2024-01-30T09:22:30;29.55;;;17.83;;
67721;SDS011;58309;45.292;11.820;2024-01-30T09:24:56;28.85;;;18.92;;
67721;SDS011;58309;45.292;11.820;2024-01-30T09:27:23;27.00;;;18.30;;
67721;SDS011;58309;45.292;11.820;2024-01-30T09:29:51;28.33;;;18.52;;
67721;SDS011;58309;45.292;11.820;2024-01-30T09:32:16;31.60;;;19.65;;
67721;SDS011;58309;45.292;11.820;2024-01-30T09:34:42;30.80;;;20.23;;
67721;SDS011;58309;45.292;11.820;2024-01-30T09:37:08;32.60;;;19.77;;
67721;SDS011;58309;45.292;11.820;2024-01-30T09:39:33;32.78;;;19.98;;
67721;SDS011;58309;45.292;11.820;2024-01-30T09:42:08;32.53;;;20.35;;
67721;SDS011;58309;45.292;11.820;2024-01-30T09:44:34;30.02;;;19.63;;
67721;SDS011;58309;45.292;11.820;2024-01-30T09:47:01;33.35;;;20.48;;
67721;SDS011;58309;45.292;11.820;2024-01-30T09:49:34;29.35;;;18.08;;
67721;SDS011;58309;45.292;11.820;2024-01-30T09:52:01;33.45;;;20.60;;
67721;SDS011;58309;45.292;11.820;2024-01-30T09:54:33;29.45;;;18.63;;
67721;SDS011;58309;45.292;11.820;2024-01-30T09:56:59;26.23;;;18.10;;
67721;SDS011;58309;45.292;11.820;2024-01-30T09:59:24;28.02;;;18.27;;
67721;SDS011;58309;45.292;11.820;2024-01-30T10:01:50;26.20;;;18.52;;
67721;SDS011;58309;45.292;11.820;2024-01-30T10:04:16;25.60;;;17.92;;
67721;SDS011;58309;45.292;11.820;2024-01-30T10:06:42;30.05;;;18.85;;
67721;SDS011;58309;45.292;11.820;2024-01-30T10:09:07;24.83;;;17.92;;
67721;SDS011;58309;45.292;11.820;2024-01-30T10:11:34;25.58;;;17.90;;
67721;SDS011;58309;45.292;11.820;2024-01-30T10:14:00;25.25;;;17.25;;
67721;SDS011;58309;45.292;11.820;2024-01-30T10:16:26;27.48;;;18.02;;
67721;SDS011;58309;45.292;11.820;2024-01-30T10:18:51;27.90;;;17.55;;
67721;SDS011;58309;45.292;11.820;2024-01-30T10:21:17;25.90;;;18.05;;
67721;SDS011;58309;45.292;11.820;2024-01-30T10:23:43;24.88;;;18.13;;
67721;SDS011;58309;45.292;11.820;2024-01-30T10:26:09;25.40;;;18.08;;
67721;SDS011;58309;45.292;11.820;2024-01-30T10:28:35;23.90;;;17.60;;
67721;SDS011;58309;45.292;11.820;2024-01-30T10:31:01;26.77;;;18.10;;
67721;SDS011;58309;45.292;11.820;2024-01-30T10:33:29;25.85;;;18.02;;
67721;SDS011;58309;45.292;11.820;2024-01-30T10:36:01;26.67;;;18.58;;
67721;SDS011;58309;45.292;11.820;2024-01-30T10:38:28;27.90;;;18.20;;
67721;SDS011;58309;45.292;11.820;2024-01-30T10:40:59;26.30;;;16.85;;
67721;SDS011;58309;45.292;11.820;2024-01-30T10:43:32;26.55;;;18.55;;
67721;SDS011;58309;45.292;11.820;2024-01-30T10:46:07;26.95;;;18.10;;
67721;SDS011;58309;45.292;11.820;2024-01-30T10:48:38;25.45;;;17.63;;
67721;SDS011;58309;45.292;11.820;2024-01-30T10:51:08;26.02;;;16.90;;
67721;SDS011;58309;45.292;11.820;2024-01-30T10:53:34;29.05;;;19.95;;
67721;SDS011;58309;45.292;11.820;2024-01-30T10:56:02;27.98;;;19.45;;
67721;SDS011;58309;45.292;11.820;2024-01-30T10:58:29;23.10;;;17.65;;
67721;SDS011;58309;45.292;11.820;2024-01-30T11:00:55;25.95;;;18.13;;
67721;SDS011;58309;45.292;11.820;2024-01-30T11:03:21;24.80;;;17.20;;
67721;SDS011;58309;45.292;11.820;2024-01-30T11:05:51;25.27;;;17.13;;
67721;SDS011;58309;45.292;11.820;2024-01-30T11:08:23;28.48;;;18.77;;
67721;SDS011;58309;45.292;11.820;2024-01-30T11:10:54;29.88;;;19.30;;
67721;SDS011;58309;45.292;11.820;2024-01-30T11:13:22;28.65;;;18.10;;
67721;SDS011;58309;45.292;11.820;2024-01-30T11:15:47;27.98;;;18.00;;
67721;SDS011;58309;45.292;11.820;2024-01-30T11:18:22;27.17;;;18.52;;
67721;SDS011;58309;45.292;11.820;2024-01-30T11:20:51;28.83;;;18.88;;
67721;SDS011;58309;45.292;11.820;2024-01-30T11:23:16;28.95;;;18.70;;
67721;SDS011;58309;45.292;11.820;2024-01-30T11:25:43;29.83;;;19.83;;
67721;SDS011;58309;45.292;11.820;2024-01-30T11:28:13;31.08;;;19.50;;
67721;SDS011;58309;45.292;11.820;2024-01-30T11:30:43;33.75;;;20.55;;
67721;SDS011;58309;45.292;11.820;2024-01-30T11:33:14;29.38;;;20.30;;
67721;SDS011;58309;45.292;11.820;2024-01-30T11:35:43;34.08;;;21.60;;
67721;SDS011;58309;45.292;11.820;2024-01-30T11:40:36;32.20;;;19.77;;
67721;SDS011;58309;45.292;11.820;2024-01-30T11:43:04;32.70;;;20.40;;
67721;SDS011;58309;45.292;11.820;2024-01-30T11:45:31;29.67;;;19.90;;
67721;SDS011;58309;45.292;11.820;2024-01-30T11:47:57;30.80;;;20.73;;
67721;SDS011;58309;45.292;11.820;2024-01-30T11:50:25;32.50;;;21.42;;
67721;SDS011;58309;45.292;11.820;2024-01-30T11:52:50;33.58;;;21.73;;
67721;SDS011;58309;45.292;11.820;2024-01-30T11:55:16;34.90;;;21.10;;
67721;SDS011;58309;45.292;11.820;2024-01-30T11:57:42;32.22;;;21.73;;
67721;SDS011;58309;45.292;11.820;2024-01-30T12:00:15;36.08;;;22.58;;
67721;SDS011;58309;45.292;11.820;2024-01-30T12:02:43;34.70;;;22.40;;
67721;SDS011;58309;45.292;11.820;2024-01-30T12:05:09;33.95;;;22.23;;
67721;SDS011;58309;45.292;11.820;2024-01-30T12:07:35;36.70;;;22.25;;
67721;SDS011;58309;45.292;11.820;2024-01-30T12:10:01;37.75;;;22.75;;
67721;SDS011;58309;45.292;11.820;2024-01-30T12:12:27;33.20;;;22.77;;
67721;SDS011;58309;45.292;11.820;2024-01-30T12:14:54;35.92;;;23.15;;
67721;SDS011;58309;45.292;11.820;2024-01-30T12:17:38;41.45;;;23.23;;
67721;SDS011;58309;45.292;11.820;2024-01-30T12:20:05;37.10;;;23.00;;
67721;SDS011;58309;45.292;11.820;2024-01-30T12:22:33;38.45;;;23.40;;
67721;SDS011;58309;45.292;11.820;2024-01-30T12:25:13;38.33;;;22.70;;
67721;SDS011;58309;45.292;11.820;2024-01-30T12:27:40;34.92;;;22.30;;
67721;SDS011;58309;45.292;11.820;2024-01-30T12:30:09;43.70;;;24.25;;
67721;SDS011;58309;45.292;11.820;2024-01-30T12:32:36;40.40;;;24.10;;
67721;SDS011;58309;45.292;11.820;2024-01-30T12:35:16;39.85;;;24.13;;
67721;SDS011;58309;45.292;11.820;2024-01-30T12:37:43;40.67;;;24.02;;
67721;SDS011;58309;45.292;11.820;2024-01-30T12:40:09;40.08;;;23.55;;
67721;SDS011;58309;45.292;11.820;2024-01-30T12:42:36;42.65;;;24.92;;
67721;SDS011;58309;45.292;11.820;2024-01-30T12:45:02;37.03;;;23.70;;
67721;SDS011;58309;45.292;11.820;2024-01-30T12:47:29;36.15;;;22.75;;
67721;SDS011;58309;45.292;11.820;2024-01-30T12:49:54;44.58;;;23.65;;
67721;SDS011;58309;45.292;11.820;2024-01-30T12:52:20;40.45;;;22.60;;
67721;SDS011;58309;45.292;11.820;2024-01-30T12:54:47;39.30;;;23.60;;
67721;SDS011;58309;45.292;11.820;2024-01-30T12:57:13;40.45;;;24.40;;
67721;SDS011;58309;45.292;11.820;2024-01-30T12:59:39;43.65;;;24.02;;
67721;SDS011;58309;45.292;11.820;2024-01-30T13:02:04;40.50;;;24.42;;
67721;SDS011;58309;45.292;11.820;2024-01-30T13:04:30;40.05;;;22.90;;
67721;SDS011;58309;45.292;11.820;2024-01-30T13:06:56;43.05;;;23.20;;
67721;SDS011;58309;45.292;11.820;2024-01-30T13:09:22;41.42;;;23.80;;
67721;SDS011;58309;45.292;11.820;2024-01-30T13:11:47;46.15;;;24.23;;
67721;SDS011;58309;45.292;11.820;2024-01-30T13:14:14;44.63;;;23.70;;
67721;SDS011;58309;45.292;11.820;2024-01-30T13:16:39;42.63;;;24.13;;
67721;SDS011;58309;45.292;11.820;2024-01-30T13:19:05;43.72;;;24.52;;
67721;SDS011;58309;45.292;11.820;2024-01-30T13:21:31;42.40;;;23.27;;
67721;SDS011;58309;45.292;11.820;2024-01-30T13:23:56;41.47;;;22.52;;
67721;SDS011;58309;45.292;11.820;2024-01-30T13:26:22;41.55;;;22.88;;
67721;SDS011;58309;45.292;11.820;2024-01-30T13:28:47;42.65;;;22.40;;
67721;SDS011;58309;45.292;11.820;2024-01-30T13:31:13;41.17;;;23.10;;
67721;SDS011;58309;45.292;11.820;2024-01-30T13:33:39;41.08;;;22.95;;
67721;SDS011;58309;45.292;11.820;2024-01-30T13:36:06;44.72;;;24.42;;
67721;SDS011;58309;45.292;11.820;2024-01-30T13:38:32;38.42;;;23.23;;
67721;SDS011;58309;45.292;11.820;2024-01-30T13:40:58;43.40;;;23.13;;
67721;SDS011;58309;45.292;11.820;2024-01-30T13:43:24;48.60;;;24.27;;
67721;SDS011;58309;45.292;11.820;2024-01-30T13:45:49;45.13;;;24.67;;
67721;SDS011;58309;45.292;11.820;2024-01-30T13:48:15;44.80;;;24.20;;
67721;SDS011;58309;45.292;11.820;2024-01-30T13:50:41;42.00;;;24.30;;
67721;SDS011;58309;45.292;11.820;2024-01-30T13:53:06;46.70;;;24.50;;
67721;SDS011;58309;45.292;11.820;2024-01-30T13:55:32;47.58;;;25.83;;
67721;SDS011;58309;45.292;11.820;2024-01-30T13:57:57;42.92;;;24.90;;
67721;SDS011;58309;45.292;11.820;2024-01-30T14:00:23;45.28;;;25.15;;
67721;SDS011;58309;45.292;11.820;2024-01-30T14:02:50;44.40;;;24.88;;
67721;SDS011;58309;45.292;11.820;2024-01-30T14:05:16;44.83;;;24.65;;